Time;durP1;ratioP1;P1;durP2;ratioP2;P2;SDS_P1;SDS_P2;PMS_P1;PMS_P2;Temp;Humidity;BMP_temperature;BMP_pressure;BME280_temperature;BME280_humidity;BME280_pressure;Samples;Min_cycle;Max_cycle;Signal;HPM_P1;HPM_P2
2023/07/06 00:00:14;;;;;;;9.50;1.40;;;13.80;99.90;;;;;;5057310;28;20020;-95
2023/07/06 00:02:39;;;;;;;6.43;1.23;;;13.80;99.90;;;;;;5056766;28;20025;-94
2023/07/06 00:05:06;;;;;;;5.50;1.27;;;13.80;99.90;;;;;;5057051;28;20499;-94
2023/07/06 00:07:34;;;;;;;4.63;1.10;;;13.70;99.90;;;;;;5057858;28;20049;-92
2023/07/06 00:10:00;;;;;;;3.58;0.98;;;13.70;99.90;;;;;;5058222;28;20037;-92
2023/07/06 00:12:29;;;;;;;3.92;1.13;;;13.70;99.90;;;;;;5057235;28;20021;-94
2023/07/06 00:14:54;;;;;;;2.10;0.95;;;13.70;99.90;;;;;;5074890;28;20032;-93
2023/07/06 00:17:22;;;;;;;5.47;1.10;;;13.70;99.90;;;;;;5074798;28;20146;-95
2023/07/06 00:19:48;;;;;;;2.03;1.20;;;13.70;99.90;;;;;;5057310;28;20032;-93
2023/07/06 00:22:14;;;;;;;3.30;1.00;;;13.70;99.90;;;;;;5057009;28;20229;-92
2023/07/06 00:24:41;;;;;;;2.80;1.08;;;13.70;99.90;;;;;;5056532;28;20032;-93
2023/07/06 00:27:07;;;;;;;8.82;1.77;;;13.70;99.90;;;;;;5074605;28;20025;-94
2023/07/06 00:29:38;;;;;;;7.93;1.23;;;13.70;99.90;;;;;;5057077;28;20085;-93
2023/07/06 00:32:15;;;;;;;1.38;0.85;;;13.70;99.90;;;;;;5074764;28;20052;-92
2023/07/06 00:34:43;;;;;;;8.20;2.08;;;13.60;99.90;;;;;;5074504;28;20040;-92
2023/07/06 00:37:12;;;;;;;4.10;1.25;;;13.60;99.90;;;;;;5056738;28;20441;-93
2023/07/06 00:39:38;;;;;;;5.35;1.17;;;13.60;99.90;;;;;;5056544;28;20032;-93
2023/07/06 00:42:05;;;;;;;8.70;1.30;;;13.60;99.90;;;;;;5056268;28;20070;-94
2023/07/06 00:44:49;;;;;;;4.03;1.10;;;13.60;99.90;;;;;;5056410;28;20059;-94
2023/07/06 00:47:15;;;;;;;5.22;1.20;;;13.60;99.90;;;;;;5056159;28;20112;-93
2023/07/06 00:49:42;;;;;;;3.80;1.20;;;13.60;99.90;;;;;;5073862;28;20034;-93
2023/07/06 00:52:10;;;;;;;6.05;1.20;;;13.60;99.90;;;;;;5056332;28;20023;-92
2023/07/06 00:54:40;;;;;;;7.45;1.33;;;13.50;99.90;;;;;;5056216;28;20032;-90
2023/07/06 00:57:07;;;;;;;5.00;1.50;;;13.50;99.90;;;;;;5059436;28;20024;-93
2023/07/06 00:59:35;;;;;;;6.63;1.20;;;13.50;99.90;;;;;;5056448;28;20039;-94
2023/07/06 01:02:02;;;;;;;7.22;1.40;;;13.50;99.90;;;;;;5056309;28;20024;-93
2023/07/06 01:04:30;;;;;;;5.55;1.30;;;13.50;99.90;;;;;;5057443;28;20031;-94
2023/07/06 01:06:56;;;;;;;12.20;1.83;;;13.50;99.90;;;;;;5058126;28;20465;-94
2023/07/06 01:09:27;;;;;;;5.85;2.15;;;13.40;99.90;;;;;;5057625;28;20054;-94
2023/07/06 01:11:55;;;;;;;9.45;1.50;;;13.40;99.90;;;;;;5059867;28;20028;-91
2023/07/06 01:14:21;;;;;;;5.57;1.33;;;13.40;99.90;;;;;;5098738;28;20123;-89
2023/07/06 01:17:08;;;;;;;6.85;1.63;;;13.30;99.90;;;;;;5080102;28;20020;-93
2023/07/06 01:20:12;;;;;;;8.98;1.70;;;13.30;99.90;;;;;;5077230;28;20046;-92
2023/07/06 01:22:50;;;;;;;6.55;1.38;;;13.30;99.90;;;;;;5078912;28;20021;-91
2023/07/06 01:25:19;;;;;;;10.13;1.58;;;13.30;99.90;;;;;;5071016;28;20032;-92
2023/07/06 01:28:16;;;;;;;6.97;1.55;;;13.30;99.90;;;;;;5062332;28;20132;-93
2023/07/06 01:30:48;;;;;;;6.03;1.75;;;13.30;99.90;;;;;;5059149;28;20028;-94
2023/07/06 01:33:26;;;;;;;9.82;1.92;;;13.20;99.90;;;;;;5058363;28;20020;-93
2023/07/06 01:36:00;;;;;;;11.20;1.40;;;13.20;99.90;;;;;;5058484;28;20115;-92
2023/07/06 01:38:26;;;;;;;8.55;1.85;;;13.20;99.90;;;;;;5060864;28;20080;-94
2023/07/06 01:40:52;;;;;;;7.75;1.50;;;13.20;99.90;;;;;;5092799;28;20017;-93
2023/07/06 01:43:20;;;;;;;3.95;1.60;;;13.20;99.90;;;;;;5058631;28;20040;-93
2023/07/06 01:45:47;;;;;;;5.95;1.70;;;13.20;99.90;;;;;;5055465;28;20020;-93
2023/07/06 01:48:14;;;;;;;10.10;2.22;;;13.10;99.90;;;;;;5055804;28;20040;-93
2023/07/06 01:51:00;;;;;;;8.82;1.80;;;13.10;99.90;;;;;;5055678;28;20043;-93
2023/07/06 01:53:54;;;;;;;11.30;1.70;;;13.10;99.90;;;;;;5036974;28;20435;-94
2023/07/06 01:56:29;;;;;;;8.30;2.08;;;13.10;99.90;;;;;;5055441;28;20401;-92
2023/07/06 01:59:09;;;;;;;12.48;1.55;;;13.10;99.90;;;;;;5055268;28;20585;-93
2023/07/06 02:01:42;;;;;;;6.05;1.50;;;13.00;99.90;;;;;;5054943;28;20052;-93
2023/07/06 02:04:07;;;;;;;8.93;1.92;;;13.00;99.90;;;;;;5055333;28;20064;-92
2023/07/06 02:06:35;;;;;;;7.53;1.75;;;13.00;99.90;;;;;;5054817;28;20052;-92
2023/07/06 02:09:03;;;;;;;10.40;1.80;;;13.00;99.90;;;;;;5055031;28;20044;-94
2023/07/06 02:11:29;;;;;;;10.15;2.03;;;13.00;99.90;;;;;;5055089;28;20079;-92
2023/07/06 02:13:55;;;;;;;6.85;1.70;;;13.00;99.90;;;;;;5055131;28;20520;-93
2023/07/06 02:16:21;;;;;;;8.40;2.13;;;13.00;99.90;;;;;;5088396;28;20040;-93
2023/07/06 02:18:47;;;;;;;6.60;1.67;;;12.90;99.90;;;;;;5054916;28;20020;-91
2023/07/06 02:21:13;;;;;;;6.68;1.75;;;12.90;99.90;;;;;;5054938;28;20032;-93
2023/07/06 02:23:39;;;;;;;7.00;1.80;;;12.90;99.90;;;;;;5054608;28;20021;-94
2023/07/06 02:26:05;;;;;;;8.43;2.10;;;12.80;99.90;;;;;;5054855;28;20025;-92
2023/07/06 02:28:31;;;;;;;11.95;1.70;;;12.80;99.90;;;;;;5073340;28;20028;-93
2023/07/06 02:30:58;;;;;;;4.85;1.58;;;12.80;99.90;;;;;;5059186;28;20025;-93
2023/07/06 02:33:30;;;;;;;11.50;2.45;;;12.80;99.90;;;;;;5075652;28;20039;-92
2023/07/06 02:35:56;;;;;;;8.27;1.83;;;12.70;99.90;;;;;;5075000;28;20028;-92
2023/07/06 02:38:22;;;;;;;6.32;1.85;;;12.70;99.90;;;;;;5075612;28;20111;-92
2023/07/06 02:40:49;;;;;;;6.00;1.50;;;12.70;99.90;;;;;;5075744;28;20374;-94
2023/07/06 02:43:15;;;;;;;6.68;1.80;;;12.70;99.90;;;;;;5078042;28;20032;-93
2023/07/06 02:45:45;;;;;;;11.20;1.80;;;12.70;99.90;;;;;;5078158;28;20492;-91
2023/07/06 02:48:11;;;;;;;9.20;2.20;;;12.70;99.90;;;;;;5084240;28;20024;-91
2023/07/06 02:50:36;;;;;;;10.23;2.58;;;12.70;99.90;;;;;;5100168;28;20020;-91
2023/07/06 02:53:02;;;;;;;7.13;1.98;;;12.70;99.90;;;;;;5097972;28;20024;-93
2023/07/06 02:55:28;;;;;;;5.75;1.80;;;12.70;99.90;;;;;;5092033;28;20031;-92
2023/07/06 02:57:54;;;;;;;6.43;1.52;;;12.70;99.90;;;;;;5075597;28;20020;-94
2023/07/06 03:00:20;;;;;;;3.88;1.80;;;12.70;99.90;;;;;;5078714;28;20115;-92
2023/07/06 03:02:48;;;;;;;8.00;1.83;;;12.70;99.90;;;;;;5077670;28;20115;-94
2023/07/06 03:05:14;;;;;;;7.63;1.45;;;12.70;99.90;;;;;;5087798;28;20122;-92
2023/07/06 03:07:41;;;;;;;7.00;1.85;;;12.60;99.90;;;;;;5085509;28;20041;-95
2023/07/06 03:10:08;;;;;;;9.93;2.28;;;12.70;99.90;;;;;;5074646;28;20037;-93
2023/07/06 03:12:36;;;;;;;3.60;1.73;;;12.70;99.90;;;;;;5074572;28;20024;-92
2023/07/06 03:15:13;;;;;;;8.25;1.55;;;12.70;99.90;;;;;;5074937;28;20032;-93
2023/07/06 03:17:39;;;;;;;9.55;1.90;;;12.70;99.90;;;;;;5074254;28;20052;-92
2023/07/06 03:20:15;;;;;;;6.03;2.00;;;12.70;99.90;;;;;;5074467;28;20146;-93
2023/07/06 03:22:46;;;;;;;8.20;1.92;;;12.60;99.90;;;;;;5057455;28;20107;-93
2023/07/06 03:25:13;;;;;;;7.53;2.15;;;12.60;99.90;;;;;;5057649;28;20033;-90
2023/07/06 03:27:40;;;;;;;11.05;1.65;;;12.60;99.90;;;;;;5057463;28;20059;-92
2023/07/06 03:30:09;;;;;;;4.35;1.60;;;12.60;99.90;;;;;;5075448;28;20032;-94
2023/07/06 03:32:37;;;;;;;11.38;1.65;;;12.60;99.90;;;;;;5057670;28;20048;-93
2023/07/06 03:35:08;;;;;;;4.07;1.60;;;12.60;99.90;;;;;;5091329;28;20107;-93
2023/07/06 03:37:33;;;;;;;;;;;12.60;99.90;;;;;;5075650;28;20070;-92
2023/07/06 03:39:59;;;;;;;9.13;2.00;;;12.60;99.90;;;;;;5056485;28;19904;-92
2023/07/06 03:42:24;;;;;;;3.80;1.63;;;12.60;99.90;;;;;;5090634;28;20493;-93
2023/07/06 03:44:55;;;;;;;5.40;1.90;;;12.60;99.90;;;;;;5075050;28;20090;-92
2023/07/06 03:47:23;;;;;;;5.35;2.35;;;12.60;99.90;;;;;;5057310;28;20036;-94
2023/07/06 03:49:50;;;;;;;10.88;2.20;;;12.60;99.90;;;;;;5057153;28;20088;-92
2023/07/06 03:52:17;;;;;;;7.32;1.92;;;12.60;99.90;;;;;;5057284;28;20021;-93
2023/07/06 03:54:44;;;;;;;6.45;1.88;;;12.60;99.90;;;;;;5056578;28;20482;-92
2023/07/06 03:57:11;;;;;;;9.82;2.17;;;12.60;99.90;;;;;;5060584;28;20389;-94
2023/07/06 03:59:38;;;;;;;8.00;1.95;;;12.60;99.90;;;;;;5057370;28;20104;-93
2023/07/06 04:02:05;;;;;;;8.90;1.90;;;12.60;99.90;;;;;;5075034;28;20487;-93
2023/07/06 04:04:32;;;;;;;10.00;1.92;;;12.60;99.90;;;;;;5057142;28;20098;-93
2023/07/06 04:06:58;;;;;;;9.80;2.13;;;12.60;99.90;;;;;;5060602;28;20086;-93
2023/07/06 04:09:27;;;;;;;6.43;1.90;;;12.60;99.90;;;;;;5058195;28;20052;-93
2023/07/06 04:11:52;;;;;;;5.32;1.98;;;12.50;99.90;;;;;;5057648;28;20024;-93
2023/07/06 04:14:29;;;;;;;5.22;2.00;;;12.50;99.90;;;;;;5058670;28;20024;-93
2023/07/06 04:16:56;;;;;;;4.80;2.05;;;12.50;99.90;;;;;;5063128;28;20020;-93
2023/07/06 04:19:22;;;;;;;6.55;2.17;;;12.50;99.90;;;;;;5072210;28;20044;-92
2023/07/06 04:21:48;;;;;;;5.13;1.80;;;12.50;99.90;;;;;;5081997;28;20019;-91
2023/07/06 04:24:16;;;;;;;5.20;2.10;;;12.50;99.90;;;;;;5082256;28;20013;-91
2023/07/06 04:26:42;;;;;;;7.38;1.95;;;12.50;99.90;;;;;;5081594;28;20020;-95
2023/07/06 04:29:09;;;;;;;5.88;1.95;;;12.60;99.90;;;;;;5077512;28;20040;-94
2023/07/06 04:31:36;;;;;;;11.65;2.97;;;12.60;99.90;;;;;;5064716;28;20121;-93
2023/07/06 04:34:03;;;;;;;7.85;2.50;;;12.60;99.90;;;;;;5062559;28;20021;-95
2023/07/06 04:36:31;;;;;;;7.07;1.98;;;12.60;99.90;;;;;;5059313;28;20095;-94
2023/07/06 04:38:59;;;;;;;7.63;2.10;;;12.60;99.90;;;;;;5058912;28;20028;-92
2023/07/06 04:41:27;;;;;;;5.85;2.30;;;12.60;99.90;;;;;;5058694;28;20115;-93
2023/07/06 04:43:54;;;;;;;7.05;1.90;;;12.60;99.90;;;;;;5077092;28;20054;-94
2023/07/06 04:46:20;;;;;;;6.47;1.90;;;12.50;99.90;;;;;;5079223;28;20036;-94
2023/07/06 04:48:47;;;;;;;6.93;2.30;;;12.50;99.90;;;;;;5076506;28;20032;-92
2023/07/06 04:51:13;;;;;;;10.00;2.38;;;12.50;99.90;;;;;;5058450;28;20024;-94
2023/07/06 04:53:39;;;;;;;7.47;2.58;;;12.50;99.90;;;;;;5057553;28;20024;-93
2023/07/06 04:56:06;;;;;;;4.30;2.30;;;12.50;99.90;;;;;;5058682;28;20067;-95
2023/07/06 04:58:32;;;;;;;6.25;2.10;;;12.50;99.90;;;;;;5057587;28;20065;-94
2023/07/06 05:01:05;;;;;;;6.72;1.95;;;12.50;99.90;;;;;;5060165;28;20115;-91
2023/07/06 05:03:31;;;;;;;8.90;2.30;;;12.60;99.90;;;;;;5068079;28;20059;-93
2023/07/06 05:06:01;;;;;;;6.32;2.35;;;12.60;99.90;;;;;;5058571;28;20029;-94
2023/07/06 05:08:27;;;;;;;6.90;2.47;;;12.60;99.90;;;;;;5058907;28;20056;-95
2023/07/06 05:10:53;;;;;;;6.22;2.00;;;12.60;99.90;;;;;;5057365;28;20028;-94
2023/07/06 05:13:22;;;;;;;12.70;2.22;;;12.70;99.90;;;;;;5075042;28;20501;-93
2023/07/06 05:15:48;;;;;;;7.97;2.45;;;12.70;99.90;;;;;;5058098;28;20024;-95
2023/07/06 05:18:15;;;;;;;4.68;2.40;;;12.80;99.90;;;;;;5076406;28;20032;-95
2023/07/06 05:20:42;;;;;;;8.38;2.47;;;12.80;99.90;;;;;;5060051;28;20036;-94
2023/07/06 05:23:08;;;;;;;6.78;2.05;;;12.90;99.90;;;;;;5072317;28;20021;-89
2023/07/06 05:25:36;;;;;;;5.35;2.35;;;12.90;99.90;;;;;;5074579;28;20017;-94
2023/07/06 05:28:02;;;;;;;13.45;2.85;;;12.90;99.90;;;;;;5075753;28;20048;-90
2023/07/06 05:30:29;;;;;;;8.68;2.20;;;12.90;99.90;;;;;;5074321;28;20024;-93
2023/07/06 05:32:55;;;;;;;8.93;2.45;;;12.90;99.90;;;;;;5079418;28;20043;-91
2023/07/06 05:35:23;;;;;;;9.05;2.20;;;12.90;99.90;;;;;;5091613;28;20465;-93
2023/07/06 05:37:48;;;;;;;5.97;2.15;;;13.00;99.90;;;;;;5066791;28;20046;-93
2023/07/06 05:40:14;;;;;;;4.05;2.10;;;13.00;99.90;;;;;;5081671;28;20025;-94
2023/07/06 05:42:40;;;;;;;8.82;2.55;;;13.00;99.90;;;;;;5057111;28;20078;-93
2023/07/06 05:45:08;;;;;;;6.97;2.03;;;13.00;99.90;;;;;;5069479;28;20044;-91
2023/07/06 05:47:34;;;;;;;7.75;2.03;;;13.00;99.90;;;;;;5062042;28;20036;-94
2023/07/06 05:49:59;;;;;;;4.60;1.70;;;13.00;99.90;;;;;;5040916;28;20751;-94
2023/07/06 05:52:27;;;;;;;5.82;2.00;;;13.00;99.90;;;;;;5047218;28;20051;-93
2023/07/06 05:54:53;;;;;;;8.18;2.50;;;13.10;99.90;;;;;;5057740;28;20092;-94
2023/07/06 05:57:19;;;;;;;4.78;2.00;;;13.10;99.90;;;;;;5057362;28;20061;-93
2023/07/06 05:59:46;;;;;;;8.52;2.00;;;13.10;99.90;;;;;;5065875;28;20038;-93
2023/07/06 06:02:20;;;;;;;5.22;2.15;;;13.20;99.90;;;;;;5069102;28;20028;-93
2023/07/06 06:04:47;;;;;;;5.38;2.17;;;13.20;99.90;;;;;;5057864;28;20024;-94
2023/07/06 06:07:14;;;;;;;4.38;1.98;;;13.20;99.90;;;;;;5055317;28;20028;-94
2023/07/06 06:09:39;;;;;;;4.20;1.88;;;13.30;99.90;;;;;;5055205;28;20104;-92
2023/07/06 06:12:06;;;;;;;9.55;2.25;;;13.30;99.90;;;;;;5072924;28;20056;-92
2023/07/06 06:14:32;;;;;;;4.97;2.38;;;13.30;99.90;;;;;;5055678;28;20029;-93
2023/07/06 06:17:03;;;;;;;7.20;2.65;;;13.40;99.90;;;;;;5055808;28;20591;-93
2023/07/06 06:19:37;;;;;;;9.63;2.63;;;13.40;99.90;;;;;;5056161;28;20021;-92
2023/07/06 06:22:09;;;;;;;6.20;2.75;;;13.50;99.90;;;;;;5054086;28;20025;-93
2023/07/06 06:24:35;;;;;;;10.05;3.38;;;13.50;99.90;;;;;;5073574;28;20037;-93
2023/07/06 06:27:01;;;;;;;9.45;3.53;;;13.60;99.90;;;;;;5057018;28;20086;-95
2023/07/06 06:29:27;;;;;;;9.10;2.63;;;13.60;99.90;;;;;;5066579;28;20028;-92
2023/07/06 06:31:54;;;;;;;9.55;2.95;;;13.70;99.90;;;;;;5080670;28;20025;-93
2023/07/06 06:34:19;;;;;;;9.35;3.38;;;13.80;99.90;;;;;;5056007;28;20035;-94
2023/07/06 06:36:46;;;;;;;7.55;2.63;;;13.90;99.90;;;;;;5055472;28;20046;-94
2023/07/06 06:39:12;;;;;;;11.27;2.47;;;13.90;99.90;;;;;;5055811;28;20079;-93
2023/07/06 06:41:39;;;;;;;10.45;2.80;;;13.90;99.90;;;;;;5055344;28;20367;-94
2023/07/06 06:44:05;;;;;;;6.50;2.47;;;13.90;99.90;;;;;;5055847;28;20039;-95
2023/07/06 06:46:31;;;;;;;14.05;3.35;;;13.90;99.90;;;;;;5059394;28;20032;-95
2023/07/06 06:48:57;;;;;;;10.95;3.13;;;14.00;99.90;;;;;;5057003;28;20028;-95
2023/07/06 06:51:23;;;;;;;8.00;2.80;;;14.00;99.90;;;;;;5058495;28;20017;-94
2023/07/06 06:53:49;;;;;;;9.80;3.03;;;14.10;99.90;;;;;;5063951;28;20021;-94
2023/07/06 06:56:14;;;;;;;13.90;4.20;;;14.10;99.90;;;;;;5055700;28;20023;-94
2023/07/06 06:58:41;;;;;;;6.80;2.67;;;14.20;99.90;;;;;;5056242;28;20465;-94
2023/07/06 07:01:11;;;;;;;12.85;4.20;;;14.20;99.90;;;;;;5056491;28;20489;-94
2023/07/06 07:03:38;;;;;;;8.02;2.70;;;14.20;99.90;;;;;;5058593;28;20508;-94
2023/07/06 07:06:11;;;;;;;8.52;2.50;;;14.20;99.90;;;;;;5076229;28;20079;-93
2023/07/06 07:08:47;;;;;;;6.50;2.67;;;14.30;99.90;;;;;;5060159;28;20059;-94
2023/07/06 07:11:13;;;;;;;9.63;2.58;;;14.30;99.90;;;;;;5054645;28;20036;-95
2023/07/06 07:13:40;;;;;;;7.32;2.65;;;14.30;99.90;;;;;;5073957;28;20048;-93
2023/07/06 07:16:11;;;;;;;7.55;2.67;;;14.30;99.90;;;;;;5059385;28;20033;-94
2023/07/06 07:18:38;;;;;;;10.60;2.40;;;14.40;99.90;;;;;;5082575;28;20066;-95
2023/07/06 07:21:07;;;;;;;7.15;2.53;;;14.40;99.90;;;;;;5070665;28;20028;-93
2023/07/06 07:23:43;;;;;;;11.43;2.15;;;14.40;99.90;;;;;;5072224;28;20029;-94
2023/07/06 07:26:14;;;;;;;9.02;2.17;;;14.40;99.90;;;;;;5061700;28;20055;-93
2023/07/06 07:28:40;;;;;;;3.05;2.05;;;14.40;99.90;;;;;;5067077;28;20044;-92
2023/07/06 07:31:11;;;;;;;7.50;3.17;;;14.40;99.90;;;;;;5065478;28;20040;-91
2023/07/06 07:33:37;;;;;;;8.40;2.53;;;14.40;99.90;;;;;;5066503;28;20131;-90
2023/07/06 07:36:04;;;;;;;7.38;2.63;;;14.40;99.90;;;;;;5090351;28;20024;-90
2023/07/06 07:38:31;;;;;;;4.80;1.90;;;14.50;99.90;;;;;;5069800;28;20517;-90
2023/07/06 07:40:59;;;;;;;6.57;2.22;;;14.50;99.90;;;;;;5095324;28;20005;-93
2023/07/06 07:43:30;;;;;;;8.65;2.00;;;14.50;99.90;;;;;;5084559;28;20021;-94
2023/07/06 07:45:56;;;;;;;;;;;14.60;99.90;;;;;;5060654;28;20025;-94
2023/07/06 07:48:24;;;;;;;9.25;2.25;;;14.70;99.90;;;;;;5077459;28;19919;-94
2023/07/06 07:50:53;;;;;;;4.63;1.88;;;14.70;99.90;;;;;;5036525;28;20025;-94
2023/07/06 07:53:32;;;;;;;8.43;2.17;;;14.80;99.90;;;;;;5054885;28;20028;-92
2023/07/06 07:56:00;;;;;;;5.07;2.38;;;14.90;99.90;;;;;;5056980;28;20107;-92
2023/07/06 07:58:27;;;;;;;4.07;2.72;;;15.00;99.90;;;;;;5059489;28;20029;-92
2023/07/06 08:00:55;;;;;;;4.97;2.20;;;15.10;99.90;;;;;;5057788;28;20119;-94
2023/07/06 08:03:25;;;;;;;10.73;2.08;;;15.10;99.90;;;;;;5043176;28;20028;-95
2023/07/06 08:05:55;;;;;;;8.02;2.42;;;15.10;99.90;;;;;;5077138;28;20025;-92
2023/07/06 08:08:58;;;;;;;8.85;2.42;;;15.20;99.90;;;;;;5056633;28;20109;-94
2023/07/06 08:11:24;;;;;;;9.10;2.20;;;15.30;99.90;;;;;;5055552;28;20048;-95
2023/07/06 08:13:53;;;;;;;7.00;1.92;;;15.40;99.90;;;;;;5069563;28;20093;-94
2023/07/06 08:16:19;;;;;;;7.65;2.22;;;15.50;99.90;;;;;;5042369;28;20049;-93
2023/07/06 08:18:55;;;;;;;6.32;2.30;;;15.60;99.90;;;;;;5058797;28;20025;-94
2023/07/06 08:21:25;;;;;;;3.80;1.90;;;15.70;99.90;;;;;;5057080;28;20037;-96
2023/07/06 08:23:53;;;;;;;5.53;1.75;;;15.90;99.90;;;;;;5056848;28;20116;-94
2023/07/06 08:26:24;;;;;;;5.53;1.63;;;16.00;99.90;;;;;;5055057;28;20103;-93
2023/07/06 08:28:51;;;;;;;5.57;2.10;;;16.10;99.90;;;;;;5055944;28;20033;-94
2023/07/06 08:31:19;;;;;;;5.15;1.88;;;16.20;99.90;;;;;;5056067;28;20021;-93
2023/07/06 08:33:47;;;;;;;4.88;1.63;;;16.40;99.90;;;;;;5057685;28;20028;-95
2023/07/06 08:36:18;;;;;;;6.40;1.67;;;16.50;99.90;;;;;;5056358;28;20060;-93
2023/07/06 08:38:44;;;;;;;12.20;2.65;;;16.50;99.90;;;;;;5055098;28;20087;-95
2023/07/06 08:41:17;;;;;;;7.80;1.95;;;16.60;99.90;;;;;;5055554;28;20033;-94
2023/07/06 08:43:43;;;;;;;6.80;2.75;;;16.60;99.90;;;;;;5057012;28;20057;-95
2023/07/06 08:46:11;;;;;;;9.27;1.95;;;16.70;99.90;;;;;;5060906;28;20053;-93
2023/07/06 08:48:37;;;;;;;6.55;1.70;;;16.80;99.90;;;;;;5061893;28;20044;-94
2023/07/06 08:51:15;;;;;;;3.95;1.73;;;16.90;99.90;;;;;;5055396;28;20033;-96
2023/07/06 08:53:50;;;;;;;5.13;1.70;;;17.00;99.90;;;;;;5054385;28;20052;-94
2023/07/06 08:56:28;;;;;;;5.38;1.98;;;17.20;99.90;;;;;;5054800;28;20082;-93
2023/07/06 08:59:02;;;;;;;4.50;1.65;;;17.30;99.90;;;;;;5062722;28;20036;-93
2023/07/06 09:01:30;;;;;;;5.68;1.48;;;17.50;98.70;;;;;;5055795;28;20033;-93
2023/07/06 09:03:59;;;;;;;4.90;1.55;;;17.60;97.40;;;;;;5055952;28;20106;-92
2023/07/06 09:06:28;;;;;;;6.15;1.52;;;17.70;96.30;;;;;;5066144;28;20075;-89
2023/07/06 09:09:01;;;;;;;5.05;1.60;;;17.80;95.60;;;;;;5068663;28;20052;-93
2023/07/06 09:11:31;;;;;;;4.40;1.40;;;17.90;95.20;;;;;;5069081;28;20025;-92
2023/07/06 09:14:00;;;;;;;7.53;1.70;;;18.10;94.80;;;;;;5075495;28;20044;-90
2023/07/06 09:16:26;;;;;;;3.60;1.33;;;18.20;94.20;;;;;;5071602;28;20021;-94
2023/07/06 09:18:59;;;;;;;4.85;1.45;;;18.20;93.50;;;;;;5056250;28;20033;-93
2023/07/06 09:21:26;;;;;;;2.67;1.30;;;18.20;92.90;;;;;;5054984;28;20021;-93
2023/07/06 09:23:53;;;;;;;3.63;1.55;;;18.20;92.80;;;;;;5059622;28;20028;-93
2023/07/06 09:26:28;;;;;;;4.82;1.60;;;18.20;91.20;;;;;;5056874;28;20025;-95
2023/07/06 09:29:18;;;;;;;4.72;2.03;;;18.20;90.70;;;;;;5054859;28;20071;-94
2023/07/06 09:31:47;;;;;;;3.15;1.40;;;18.20;90.40;;;;;;5053715;28;20029;-94
2023/07/06 09:34:35;;;;;;;4.35;1.00;;;18.10;90.40;;;;;;5055347;28;20021;-94
2023/07/06 09:37:04;;;;;;;4.63;1.60;;;18.10;90.00;;;;;;5056415;28;20040;-95
2023/07/06 09:39:32;;;;;;;4.35;1.52;;;18.10;88.40;;;;;;5055757;28;20071;-94
2023/07/06 09:42:01;;;;;;;5.28;1.50;;;18.10;87.50;;;;;;5054213;28;20028;-92
2023/07/06 09:44:29;;;;;;;8.73;1.50;;;18.30;86.80;;;;;;5054858;28;20052;-93
2023/07/06 09:46:57;;;;;;;3.63;1.40;;;18.50;85.70;;;;;;5054205;28;20029;-94
2023/07/06 09:49:29;;;;;;;3.17;1.38;;;18.70;83.90;;;;;;5055193;28;20040;-96
2023/07/06 09:52:05;;;;;;;4.03;1.52;;;19.00;82.70;;;;;;5062716;28;20041;-94
2023/07/06 09:54:50;;;;;;;3.05;1.38;;;19.20;82.20;;;;;;5067924;28;20029;-94
2023/07/06 09:57:16;;;;;;;1.67;1.10;;;19.50;81.30;;;;;;5059732;28;20025;-94
2023/07/06 09:59:47;;;;;;;2.70;1.20;;;19.80;80.20;;;;;;5070041;28;20040;-93
2023/07/06 10:02:26;;;;;;;2.65;1.05;;;19.90;76.60;;;;;;5066640;28;20056;-94
2023/07/06 10:04:54;;;;;;;2.40;1.20;;;19.90;75.60;;;;;;5075004;28;20025;-91
2023/07/06 10:07:28;;;;;;;2.60;0.98;;;20.00;73.70;;;;;;5077943;28;20088;-90
2023/07/06 10:10:18;;;;;;;3.40;1.30;;;20.00;72.90;;;;;;5078630;28;20082;-91
2023/07/06 10:13:15;;;;;;;4.32;1.52;;;20.00;73.90;;;;;;5089093;28;20012;-93
2023/07/06 10:15:57;;;;;;;5.38;1.55;;;20.10;73.70;;;;;;5074344;28;20021;-93
2023/07/06 10:18:55;;;;;;;2.72;1.33;;;20.20;73.70;;;;;;5074430;28;20034;-95
2023/07/06 10:21:40;;;;;;;2.85;1.48;;;20.20;73.80;;;;;;5061290;28;20093;-93
2023/07/06 10:24:32;;;;;;;4.43;1.65;;;20.20;73.00;;;;;;5077796;28;20035;-93
2023/07/06 10:27:00;;;;;;;;;;;20.30;73.70;;;;;;5083593;28;20041;-94
2023/07/06 10:29:45;;;;;;;3.10;1.30;;;20.30;73.40;;;;;;5067510;28;19912;-93
2023/07/06 10:32:31;;;;;;;6.03;1.75;;;20.30;73.40;;;;;;5066880;28;20056;-94
2023/07/06 10:35:19;;;;;;;4.45;1.20;;;20.30;73.60;;;;;;5061271;28;20063;-94
2023/07/06 10:37:47;;;;;;;3.67;1.13;;;20.20;73.20;;;;;;5061551;28;20111;-95
2023/07/06 10:40:25;;;;;;;3.85;1.27;;;20.10;73.00;;;;;;5059650;28;20039;-94
2023/07/06 10:43:20;;;;;;;2.50;1.15;;;19.90;72.60;;;;;;5060423;28;20029;-95
2023/07/06 10:45:56;;;;;;;2.78;1.35;;;19.90;73.00;;;;;;5071709;28;20029;-92
2023/07/06 10:48:24;;;;;;;4.05;1.50;;;19.70;72.20;;;;;;5078878;28;20048;-91
2023/07/06 10:50:52;;;;;;;6.20;1.70;;;19.60;72.50;;;;;;5095936;28;20043;-92
2023/07/06 10:53:32;;;;;;;4.47;1.45;;;19.50;72.80;;;;;;5097339;28;20047;-94
2023/07/06 10:56:01;;;;;;;3.30;1.40;;;19.40;72.70;;;;;;5071923;28;20028;-92
2023/07/06 10:58:30;;;;;;;3.67;1.50;;;19.30;72.90;;;;;;5064292;28;20046;-94
2023/07/06 11:00:59;;;;;;;7.43;2.13;;;19.20;73.00;;;;;;5088974;28;20056;-94
2023/07/06 11:03:29;;;;;;;7.82;1.98;;;19.10;73.50;;;;;;5069800;28;20040;-94
2023/07/06 11:06:07;;;;;;;5.60;1.70;;;19.10;74.40;;;;;;5081921;28;20028;-94
2023/07/06 11:09:09;;;;;;;4.53;1.58;;;19.10;74.70;;;;;;5061564;28;20299;-94
2023/07/06 11:11:42;;;;;;;6.05;1.70;;;19.10;74.60;;;;;;5057994;28;20123;-96
2023/07/06 11:14:33;;;;;;;5.78;1.80;;;19.00;74.70;;;;;;5057559;28;20025;-92
2023/07/06 11:17:26;;;;;;;6.05;1.40;;;19.00;75.00;;;;;;5058010;28;20052;-94
2023/07/06 11:19:59;;;;;;;6.68;1.73;;;19.00;75.30;;;;;;5057730;28;20032;-94
2023/07/06 11:22:25;;;;;;;3.63;2.00;;;18.90;75.60;;;;;;5055584;28;20037;-93
2023/07/06 11:25:04;;;;;;;4.93;1.60;;;18.80;75.50;;;;;;5041505;28;20032;-94
2023/07/06 11:27:36;;;;;;;5.85;1.50;;;18.70;75.90;;;;;;5025254;28;20060;-95
2023/07/06 11:30:25;;;;;;;8.77;2.17;;;18.60;76.10;;;;;;5044218;28;20028;-95
2023/07/06 11:32:51;;;;;;;4.05;1.60;;;18.50;76.40;;;;;;5061088;28;20029;-92
2023/07/06 11:35:17;;;;;;;5.47;1.70;;;18.40;76.20;;;;;;5068866;28;20071;-95
2023/07/06 11:37:56;;;;;;;5.57;1.60;;;18.30;76.30;;;;;;5054558;28;20112;-95
2023/07/06 11:40:34;;;;;;;5.70;2.10;;;18.30;76.80;;;;;;5060682;28;20070;-94
2023/07/06 11:43:49;;;;;;;5.35;1.77;;;18.20;77.10;;;;;;5068373;28;20096;-91
2023/07/06 11:46:29;;;;;;;10.20;1.83;;;18.10;77.60;;;;;;5053130;28;20100;-94
2023/07/06 11:48:55;;;;;;;3.15;1.50;;;18.00;77.70;;;;;;5056214;28;20044;-95
2023/07/06 11:51:22;;;;;;;5.93;1.70;;;17.90;78.30;;;;;;5058313;28;20017;-95
2023/07/06 11:53:57;;;;;;;5.97;1.52;;;17.90;79.00;;;;;;5061047;28;20029;-95
2023/07/06 11:56:50;;;;;;;5.90;1.90;;;17.80;79.30;;;;;;5062128;28;20489;-93
2023/07/06 11:59:37;;;;;;;5.10;1.83;;;17.90;79.80;;;;;;5057723;28;20048;-92
2023/07/06 12:02:17;;;;;;;5.50;1.70;;;17.90;80.40;;;;;;5052039;28;20021;-93
2023/07/06 12:04:46;;;;;;;6.43;1.90;;;17.80;80.70;;;;;;5055191;28;20035;-92
2023/07/06 12:07:29;;;;;;;6.38;1.63;;;17.70;81.40;;;;;;5054858;28;20025;-94
2023/07/06 12:10:00;;;;;;;4.72;1.85;;;17.70;82.20;;;;;;5072687;28;20561;-93
2023/07/06 12:12:28;;;;;;;4.32;1.75;;;17.60;82.90;;;;;;5077462;28;20492;-93
2023/07/06 12:14:55;;;;;;;4.50;1.70;;;17.60;83.80;;;;;;5058994;28;20412;-92
2023/07/06 12:17:22;;;;;;;4.80;2.17;;;17.40;85.10;;;;;;5043125;28;20021;-94
2023/07/06 12:19:48;;;;;;;4.93;1.60;;;17.40;84.90;;;;;;5060491;28;20033;-94
2023/07/06 12:22:18;;;;;;;7.35;1.65;;;17.40;85.40;;;;;;5077862;28;20016;-93
2023/07/06 12:24:44;;;;;;;5.28;1.77;;;17.30;85.70;;;;;;5078987;28;20032;-92
2023/07/06 12:27:39;;;;;;;4.10;1.85;;;17.40;86.10;;;;;;5069593;28;20067;-95
2023/07/06 12:30:06;;;;;;;4.88;1.80;;;17.50;86.50;;;;;;5060224;28;20135;-93
2023/07/06 12:32:33;;;;;;;5.93;1.75;;;17.70;86.40;;;;;;5076468;28;20485;-93
2023/07/06 12:34:59;;;;;;;3.97;1.98;;;17.80;86.20;;;;;;5077830;28;20554;-92
2023/07/06 12:37:25;;;;;;;7.20;2.30;;;17.90;85.80;;;;;;5073959;28;20036;-92
2023/07/06 12:39:50;;;;;;;7.35;1.80;;;17.90;85.50;;;;;;5068166;28;20398;-92
2023/07/06 12:42:18;;;;;;;11.82;3.10;;;18.10;85.10;;;;;;5059337;28;20016;-94
2023/07/06 12:44:47;;;;;;;5.95;1.60;;;18.10;83.60;;;;;;5058721;28;20074;-94
2023/07/06 12:47:36;;;;;;;2.25;1.33;;;18.00;83.50;;;;;;5078981;28;20074;-95
2023/07/06 12:50:06;;;;;;;2.85;1.63;;;18.10;84.40;;;;;;5080602;28;20052;-94
2023/07/06 12:52:33;;;;;;;4.68;1.40;;;18.20;83.70;;;;;;5064397;28;20104;-94
2023/07/06 12:55:01;;;;;;;4.03;1.50;;;18.20;82.00;;;;;;5060256;28;20067;-94
2023/07/06 12:57:55;;;;;;;6.50;1.70;;;18.20;82.80;;;;;;5078801;28;20147;-95
2023/07/06 13:00:25;;;;;;;5.78;1.48;;;18.40;83.50;;;;;;5045908;28;20039;-94
2023/07/06 13:02:56;;;;;;;4.78;1.80;;;18.50;83.20;;;;;;5060870;28;20028;-94